sensor_id;sensor_type;location;lat;lon;timestamp;P1;durP1;ratioP1;P2;durP2;ratioP2
51296;SDS011;37380;45.186;9.792;2023-09-19T00:02:12;19.33;;;14.10;;
51296;SDS011;37380;45.186;9.792;2023-09-19T00:05:13;16.73;;;13.30;;
51296;SDS011;37380;45.186;9.792;2023-09-19T00:08:17;19.50;;;12.63;;
51296;SDS011;37380;45.186;9.792;2023-09-19T00:11:12;23.55;;;14.10;;
51296;SDS011;37380;45.186;9.792;2023-09-19T00:13:39;19.13;;;13.02;;
51296;SDS011;37380;45.186;9.792;2023-09-19T00:16:10;15.77;;;11.95;;
51296;SDS011;37380;45.186;9.792;2023-09-19T00:18:38;13.10;;;11.65;;
51296;SDS011;37380;45.186;9.792;2023-09-19T00:21:05;23.02;;;15.20;;
51296;SDS011;37380;45.186;9.792;2023-09-19T00:23:33;26.30;;;13.85;;
51296;SDS011;37380;45.186;9.792;2023-09-19T00:26:00;18.20;;;14.20;;
51296;SDS011;37380;45.186;9.792;2023-09-19T00:28:27;22.38;;;15.27;;
51296;SDS011;37380;45.186;9.792;2023-09-19T00:30:58;22.33;;;14.10;;
51296;SDS011;37380;45.186;9.792;2023-09-19T00:33:28;19.83;;;13.35;;
51296;SDS011;37380;45.186;9.792;2023-09-19T00:35:56;30.08;;;14.45;;
51296;SDS011;37380;45.186;9.792;2023-09-19T00:38:24;17.15;;;13.65;;
51296;SDS011;37380;45.186;9.792;2023-09-19T00:40:54;17.08;;;13.90;;
51296;SDS011;37380;45.186;9.792;2023-09-19T00:43:26;17.70;;;14.45;;
51296;SDS011;37380;45.186;9.792;2023-09-19T00:45:55;21.35;;;13.93;;
51296;SDS011;37380;45.186;9.792;2023-09-19T00:48:24;22.27;;;15.27;;
51296;SDS011;37380;45.186;9.792;2023-09-19T00:51:02;19.02;;;14.82;;
51296;SDS011;37380;45.186;9.792;2023-09-19T00:53:58;21.90;;;13.05;;
51296;SDS011;37380;45.186;9.792;2023-09-19T00:56:26;31.25;;;14.93;;
51296;SDS011;37380;45.186;9.792;2023-09-19T00:58:53;20.23;;;14.52;;
51296;SDS011;37380;45.186;9.792;2023-09-19T01:01:26;24.80;;;15.55;;
51296;SDS011;37380;45.186;9.792;2023-09-19T01:04:27;20.45;;;14.65;;
51296;SDS011;37380;45.186;9.792;2023-09-19T01:07:22;22.55;;;14.90;;
51296;SDS011;37380;45.186;9.792;2023-09-19T01:09:49;24.52;;;14.98;;
51296;SDS011;37380;45.186;9.792;2023-09-19T01:12:17;26.52;;;17.00;;
51296;SDS011;37380;45.186;9.792;2023-09-19T01:14:59;21.80;;;16.83;;
51296;SDS011;37380;45.186;9.792;2023-09-19T01:17:34;27.13;;;16.90;;
51296;SDS011;37380;45.186;9.792;2023-09-19T01:20:30;20.35;;;16.75;;
51296;SDS011;37380;45.186;9.792;2023-09-19T01:23:14;25.88;;;16.83;;
51296;SDS011;37380;45.186;9.792;2023-09-19T01:25:52;27.08;;;17.45;;
51296;SDS011;37380;45.186;9.792;2023-09-19T01:31:28;33.35;;;18.02;;
51296;SDS011;37380;45.186;9.792;2023-09-19T01:34:02;28.08;;;17.63;;
51296;SDS011;37380;45.186;9.792;2023-09-19T01:36:35;25.38;;;18.58;;
51296;SDS011;37380;45.186;9.792;2023-09-19T01:39:12;30.58;;;15.88;;
51296;SDS011;37380;45.186;9.792;2023-09-19T01:44:29;30.30;;;16.98;;
51296;SDS011;37380;45.186;9.792;2023-09-19T01:47:04;22.67;;;17.30;;
51296;SDS011;37380;45.186;9.792;2023-09-19T01:49:44;25.77;;;15.38;;
51296;SDS011;37380;45.186;9.792;2023-09-19T01:52:28;23.42;;;14.68;;
51296;SDS011;37380;45.186;9.792;2023-09-19T01:55:02;19.35;;;13.93;;
51296;SDS011;37380;45.186;9.792;2023-09-19T01:57:40;22.42;;;15.00;;
51296;SDS011;37380;45.186;9.792;2023-09-19T02:00:14;29.95;;;15.75;;
51296;SDS011;37380;45.186;9.792;2023-09-19T02:02:51;29.73;;;17.10;;
51296;SDS011;37380;45.186;9.792;2023-09-19T02:05:51;26.15;;;16.45;;
51296;SDS011;37380;45.186;9.792;2023-09-19T02:08:21;21.08;;;17.83;;
51296;SDS011;37380;45.186;9.792;2023-09-19T02:10:52;23.15;;;17.25;;
51296;SDS011;37380;45.186;9.792;2023-09-19T02:13:20;24.92;;;18.40;;
51296;SDS011;37380;45.186;9.792;2023-09-19T02:15:51;25.83;;;19.42;;
51296;SDS011;37380;45.186;9.792;2023-09-19T02:18:18;33.20;;;20.52;;
51296;SDS011;37380;45.186;9.792;2023-09-19T02:20:47;28.25;;;19.63;;
51296;SDS011;37380;45.186;9.792;2023-09-19T02:23:14;33.03;;;20.67;;
51296;SDS011;37380;45.186;9.792;2023-09-19T02:25:42;42.00;;;19.40;;
51296;SDS011;37380;45.186;9.792;2023-09-19T02:28:10;24.00;;;18.10;;
51296;SDS011;37380;45.186;9.792;2023-09-19T02:30:38;28.38;;;20.67;;
51296;SDS011;37380;45.186;9.792;2023-09-19T02:33:05;34.38;;;24.55;;
51296;SDS011;37380;45.186;9.792;2023-09-19T02:35:32;37.65;;;21.05;;
51296;SDS011;37380;45.186;9.792;2023-09-19T02:38:02;27.25;;;20.73;;
51296;SDS011;37380;45.186;9.792;2023-09-19T02:40:33;30.95;;;21.17;;
51296;SDS011;37380;45.186;9.792;2023-09-19T02:43:03;31.75;;;21.45;;
51296;SDS011;37380;45.186;9.792;2023-09-19T02:45:31;42.20;;;22.30;;
51296;SDS011;37380;45.186;9.792;2023-09-19T02:47:59;30.88;;;23.17;;
51296;SDS011;37380;45.186;9.792;2023-09-19T02:50:27;29.40;;;24.20;;
51296;SDS011;37380;45.186;9.792;2023-09-19T02:52:54;33.83;;;26.45;;
51296;SDS011;37380;45.186;9.792;2023-09-19T02:55:21;40.75;;;28.73;;
51296;SDS011;37380;45.186;9.792;2023-09-19T02:57:54;45.83;;;27.55;;
51296;SDS011;37380;45.186;9.792;2023-09-19T03:00:21;45.25;;;30.83;;
51296;SDS011;37380;45.186;9.792;2023-09-19T03:02:56;40.13;;;28.75;;
51296;SDS011;37380;45.186;9.792;2023-09-19T03:05:57;55.80;;;29.27;;
51296;SDS011;37380;45.186;9.792;2023-09-19T03:08:51;39.42;;;30.75;;
51296;SDS011;37380;45.186;9.792;2023-09-19T03:11:41;44.78;;;32.53;;
51296;SDS011;37380;45.186;9.792;2023-09-19T03:14:08;39.60;;;30.95;;
51296;SDS011;37380;45.186;9.792;2023-09-19T03:16:36;48.20;;;34.50;;
51296;SDS011;37380;45.186;9.792;2023-09-19T03:19:04;45.78;;;34.03;;
51296;SDS011;37380;45.186;9.792;2023-09-19T03:21:32;65.65;;;43.63;;
51296;SDS011;37380;45.186;9.792;2023-09-19T03:23:59;69.18;;;46.63;;
51296;SDS011;37380;45.186;9.792;2023-09-19T03:26:25;60.67;;;49.05;;
51296;SDS011;37380;45.186;9.792;2023-09-19T03:28:53;68.00;;;50.17;;
51296;SDS011;37380;45.186;9.792;2023-09-19T03:31:20;67.30;;;52.28;;
51296;SDS011;37380;45.186;9.792;2023-09-19T03:33:48;68.85;;;51.15;;
51296;SDS011;37380;45.186;9.792;2023-09-19T03:36:15;67.50;;;49.80;;
51296;SDS011;37380;45.186;9.792;2023-09-19T03:38:42;67.03;;;51.90;;
51296;SDS011;37380;45.186;9.792;2023-09-19T03:41:09;64.72;;;53.90;;
51296;SDS011;37380;45.186;9.792;2023-09-19T03:43:36;65.57;;;54.25;;
51296;SDS011;37380;45.186;9.792;2023-09-19T03:46:03;75.53;;;54.03;;
51296;SDS011;37380;45.186;9.792;2023-09-19T03:48:32;74.93;;;55.33;;
51296;SDS011;37380;45.186;9.792;2023-09-19T03:51:01;84.47;;;57.47;;
51296;SDS011;37380;45.186;9.792;2023-09-19T03:53:29;73.88;;;55.75;;
51296;SDS011;37380;45.186;9.792;2023-09-19T03:55:56;72.13;;;54.80;;
51296;SDS011;37380;45.186;9.792;2023-09-19T03:58:24;73.40;;;54.83;;
51296;SDS011;37380;45.186;9.792;2023-09-19T04:00:54;74.35;;;56.35;;
51296;SDS011;37380;45.186;9.792;2023-09-19T04:03:29;72.38;;;55.42;;
51296;SDS011;37380;45.186;9.792;2023-09-19T04:06:36;76.85;;;56.35;;
51296;SDS011;37380;45.186;9.792;2023-09-19T04:09:03;74.47;;;56.53;;
51296;SDS011;37380;45.186;9.792;2023-09-19T04:11:30;80.82;;;55.53;;
51296;SDS011;37380;45.186;9.792;2023-09-19T04:13:57;83.45;;;56.97;;
51296;SDS011;37380;45.186;9.792;2023-09-19T04:16:24;74.53;;;55.40;;
51296;SDS011;37380;45.186;9.792;2023-09-19T04:18:52;81.57;;;60.22;;
51296;SDS011;37380;45.186;9.792;2023-09-19T04:21:19;77.50;;;59.65;;
51296;SDS011;37380;45.186;9.792;2023-09-19T04:23:45;82.70;;;61.80;;
51296;SDS011;37380;45.186;9.792;2023-09-19T04:26:14;83.05;;;59.20;;
51296;SDS011;37380;45.186;9.792;2023-09-19T04:28:43;93.63;;;62.28;;
51296;SDS011;37380;45.186;9.792;2023-09-19T04:31:10;91.25;;;61.78;;
51296;SDS011;37380;45.186;9.792;2023-09-19T04:33:38;89.70;;;60.20;;
51296;SDS011;37380;45.186;9.792;2023-09-19T04:36:06;96.43;;;66.10;;
51296;SDS011;37380;45.186;9.792;2023-09-19T04:38:54;96.25;;;63.53;;
51296;SDS011;37380;45.186;9.792;2023-09-19T04:41:21;102.57;;;66.63;;
51296;SDS011;37380;45.186;9.792;2023-09-19T04:43:48;103.85;;;63.80;;
51296;SDS011;37380;45.186;9.792;2023-09-19T04:46:18;111.10;;;67.05;;
51296;SDS011;37380;45.186;9.792;2023-09-19T04:48:47;110.97;;;66.05;;
51296;SDS011;37380;45.186;9.792;2023-09-19T04:51:13;117.72;;;68.55;;
51296;SDS011;37380;45.186;9.792;2023-09-19T04:53:41;119.25;;;70.28;;
51296;SDS011;37380;45.186;9.792;2023-09-19T04:56:09;121.47;;;71.95;;
51296;SDS011;37380;45.186;9.792;2023-09-19T04:58:38;141.13;;;74.22;;
51296;SDS011;37380;45.186;9.792;2023-09-19T05:01:05;136.48;;;75.35;;
51296;SDS011;37380;45.186;9.792;2023-09-19T05:03:39;134.50;;;76.30;;
51296;SDS011;37380;45.186;9.792;2023-09-19T05:06:43;161.25;;;83.68;;
51296;SDS011;37380;45.186;9.792;2023-09-19T05:09:45;145.07;;;80.65;;
51296;SDS011;37380;45.186;9.792;2023-09-19T05:12:46;159.98;;;85.70;;
51296;SDS011;37380;45.186;9.792;2023-09-19T05:15:40;163.73;;;83.95;;
51296;SDS011;37380;45.186;9.792;2023-09-19T05:18:07;161.73;;;80.72;;
51296;SDS011;37380;45.186;9.792;2023-09-19T05:20:34;148.80;;;81.90;;
51296;SDS011;37380;45.186;9.792;2023-09-19T05:23:03;164.23;;;83.63;;
51296;SDS011;37380;45.186;9.792;2023-09-19T05:25:39;152.82;;;84.30;;
51296;SDS011;37380;45.186;9.792;2023-09-19T05:28:07;166.88;;;89.93;;
51296;SDS011;37380;45.186;9.792;2023-09-19T05:30:37;154.00;;;85.57;;
51296;SDS011;37380;45.186;9.792;2023-09-19T05:33:05;150.48;;;79.15;;
51296;SDS011;37380;45.186;9.792;2023-09-19T05:35:32;143.73;;;77.50;;
51296;SDS011;37380;45.186;9.792;2023-09-19T05:38:00;140.60;;;80.32;;
51296;SDS011;37380;45.186;9.792;2023-09-19T05:40:27;153.00;;;81.60;;
51296;SDS011;37380;45.186;9.792;2023-09-19T05:42:54;142.50;;;79.47;;
51296;SDS011;37380;45.186;9.792;2023-09-19T05:45:21;145.50;;;81.25;;
51296;SDS011;37380;45.186;9.792;2023-09-19T05:47:52;130.63;;;76.22;;
51296;SDS011;37380;45.186;9.792;2023-09-19T05:50:34;125.05;;;77.85;;
51296;SDS011;37380;45.186;9.792;2023-09-19T05:53:28;142.07;;;82.35;;
51296;SDS011;37380;45.186;9.792;2023-09-19T05:55:55;150.82;;;82.22;;
51296;SDS011;37380;45.186;9.792;2023-09-19T05:58:22;120.78;;;75.38;;
51296;SDS011;37380;45.186;9.792;2023-09-19T06:00:49;120.00;;;76.35;;
51296;SDS011;37380;45.186;9.792;2023-09-19T06:03:23;131.40;;;78.75;;
51296;SDS011;37380;45.186;9.792;2023-09-19T06:06:25;124.18;;;76.75;;
51296;SDS011;37380;45.186;9.792;2023-09-19T06:09:27;123.85;;;76.15;;
51296;SDS011;37380;45.186;9.792;2023-09-19T06:12:21;128.07;;;76.28;;
51296;SDS011;37380;45.186;9.792;2023-09-19T06:14:55;116.20;;;71.15;;
51296;SDS011;37380;45.186;9.792;2023-09-19T06:17:49;115.55;;;70.82;;
51296;SDS011;37380;45.186;9.792;2023-09-19T06:20:18;108.22;;;68.57;;
51296;SDS011;37380;45.186;9.792;2023-09-19T06:22:56;106.50;;;67.28;;
51296;SDS011;37380;45.186;9.792;2023-09-19T06:25:57;98.68;;;64.93;;
51296;SDS011;37380;45.186;9.792;2023-09-19T06:28:53;104.50;;;63.88;;
51296;SDS011;37380;45.186;9.792;2023-09-19T06:31:21;103.30;;;63.30;;
51296;SDS011;37380;45.186;9.792;2023-09-19T06:33:49;110.07;;;66.07;;
51296;SDS011;37380;45.186;9.792;2023-09-19T06:36:16;106.10;;;63.55;;
51296;SDS011;37380;45.186;9.792;2023-09-19T06:38:43;97.47;;;62.15;;
51296;SDS011;37380;45.186;9.792;2023-09-19T06:41:10;105.50;;;62.70;;
51296;SDS011;37380;45.186;9.792;2023-09-19T06:43:38;97.85;;;61.15;;
51296;SDS011;37380;45.186;9.792;2023-09-19T06:46:06;93.40;;;60.03;;
51296;SDS011;37380;45.186;9.792;2023-09-19T06:48:34;100.20;;;60.47;;
51296;SDS011;37380;45.186;9.792;2023-09-19T06:51:01;90.72;;;56.17;;
51296;SDS011;37380;45.186;9.792;2023-09-19T06:53:32;95.15;;;58.42;;
51296;SDS011;37380;45.186;9.792;2023-09-19T06:56:01;88.50;;;53.05;;
51296;SDS011;37380;45.186;9.792;2023-09-19T06:58:29;104.07;;;62.63;;
51296;SDS011;37380;45.186;9.792;2023-09-19T07:00:58;103.78;;;62.47;;
51296;SDS011;37380;45.186;9.792;2023-09-19T07:03:32;100.32;;;61.90;;
51296;SDS011;37380;45.186;9.792;2023-09-19T07:06:33;102.45;;;62.78;;
51296;SDS011;37380;45.186;9.792;2023-09-19T07:09:34;105.80;;;62.55;;
51296;SDS011;37380;45.186;9.792;2023-09-19T07:12:36;92.55;;;61.85;;
51296;SDS011;37380;45.186;9.792;2023-09-19T07:15:40;96.63;;;62.35;;
51296;SDS011;37380;45.186;9.792;2023-09-19T07:18:41;77.55;;;55.90;;
51296;SDS011;37380;45.186;9.792;2023-09-19T07:21:34;77.65;;;53.88;;
51296;SDS011;37380;45.186;9.792;2023-09-19T07:24:12;75.30;;;52.92;;
51296;SDS011;37380;45.186;9.792;2023-09-19T07:27:09;68.28;;;49.65;;
51296;SDS011;37380;45.186;9.792;2023-09-19T07:29:36;68.78;;;47.55;;
51296;SDS011;37380;45.186;9.792;2023-09-19T07:32:04;59.85;;;41.75;;
51296;SDS011;37380;45.186;9.792;2023-09-19T07:34:33;60.78;;;42.35;;
51296;SDS011;37380;45.186;9.792;2023-09-19T07:37:03;51.50;;;39.15;;
51296;SDS011;37380;45.186;9.792;2023-09-19T07:39:30;52.45;;;35.05;;
51296;SDS011;37380;45.186;9.792;2023-09-19T07:41:57;56.05;;;37.08;;
51296;SDS011;37380;45.186;9.792;2023-09-19T07:44:24;46.55;;;33.67;;
51296;SDS011;37380;45.186;9.792;2023-09-19T07:46:52;48.65;;;28.65;;
51296;SDS011;37380;45.186;9.792;2023-09-19T07:49:29;34.15;;;26.63;;
51296;SDS011;37380;45.186;9.792;2023-09-19T07:52:30;44.17;;;27.55;;
51296;SDS011;37380;45.186;9.792;2023-09-19T07:55:26;38.33;;;26.95;;
51296;SDS011;37380;45.186;9.792;2023-09-19T07:57:53;37.22;;;25.95;;
51296;SDS011;37380;45.186;9.792;2023-09-19T08:00:20;35.33;;;23.00;;
51296;SDS011;37380;45.186;9.792;2023-09-19T08:02:54;35.33;;;23.05;;
51296;SDS011;37380;45.186;9.792;2023-09-19T08:05:56;33.85;;;23.98;;
51296;SDS011;37380;45.186;9.792;2023-09-19T08:08:24;29.83;;;22.70;;
51296;SDS011;37380;45.186;9.792;2023-09-19T08:10:53;32.60;;;22.65;;
51296;SDS011;37380;45.186;9.792;2023-09-19T08:13:23;33.70;;;23.92;;
51296;SDS011;37380;45.186;9.792;2023-09-19T08:15:51;24.75;;;21.92;;
51296;SDS011;37380;45.186;9.792;2023-09-19T08:18:20;34.10;;;21.05;;
51296;SDS011;37380;45.186;9.792;2023-09-19T08:20:52;25.30;;;18.90;;
51296;SDS011;37380;45.186;9.792;2023-09-19T08:23:19;22.40;;;19.58;;
51296;SDS011;37380;45.186;9.792;2023-09-19T08:25:47;28.48;;;18.80;;
51296;SDS011;37380;45.186;9.792;2023-09-19T08:28:15;30.15;;;20.05;;
51296;SDS011;37380;45.186;9.792;2023-09-19T08:30:46;25.90;;;21.02;;
51296;SDS011;37380;45.186;9.792;2023-09-19T08:33:13;30.95;;;22.83;;
51296;SDS011;37380;45.186;9.792;2023-09-19T08:35:42;26.20;;;21.52;;
51296;SDS011;37380;45.186;9.792;2023-09-19T08:38:09;31.25;;;22.20;;
51296;SDS011;37380;45.186;9.792;2023-09-19T08:40:38;32.70;;;21.23;;
51296;SDS011;37380;45.186;9.792;2023-09-19T08:43:07;30.13;;;22.77;;
51296;SDS011;37380;45.186;9.792;2023-09-19T08:45:35;27.92;;;22.77;;
51296;SDS011;37380;45.186;9.792;2023-09-19T08:50:33;40.58;;;25.75;;
51296;SDS011;37380;45.186;9.792;2023-09-19T08:53:10;31.05;;;23.98;;
51296;SDS011;37380;45.186;9.792;2023-09-19T08:55:41;30.80;;;22.65;;
51296;SDS011;37380;45.186;9.792;2023-09-19T08:58:10;30.77;;;24.00;;
51296;SDS011;37380;45.186;9.792;2023-09-19T09:00:47;42.03;;;24.58;;
51296;SDS011;37380;45.186;9.792;2023-09-19T09:03:23;25.33;;;22.63;;
51296;SDS011;37380;45.186;9.792;2023-09-19T09:06:19;29.27;;;19.08;;
51296;SDS011;37380;45.186;9.792;2023-09-19T09:08:47;24.17;;;18.70;;
51296;SDS011;37380;45.186;9.792;2023-09-19T09:11:14;30.90;;;20.73;;
51296;SDS011;37380;45.186;9.792;2023-09-19T09:13:46;28.70;;;22.25;;
51296;SDS011;37380;45.186;9.792;2023-09-19T09:16:16;32.15;;;24.27;;
51296;SDS011;37380;45.186;9.792;2023-09-19T09:18:47;32.35;;;22.80;;
51296;SDS011;37380;45.186;9.792;2023-09-19T09:21:21;26.08;;;23.27;;
51296;SDS011;37380;45.186;9.792;2023-09-19T09:23:49;36.00;;;26.52;;
51296;SDS011;37380;45.186;9.792;2023-09-19T09:26:37;31.15;;;22.15;;
51296;SDS011;37380;45.186;9.792;2023-09-19T09:29:10;23.80;;;20.25;;
51296;SDS011;37380;45.186;9.792;2023-09-19T09:31:37;27.95;;;19.15;;
51296;SDS011;37380;45.186;9.792;2023-09-19T09:34:04;26.85;;;22.40;;
51296;SDS011;37380;45.186;9.792;2023-09-19T09:36:38;24.42;;;21.33;;
51296;SDS011;37380;45.186;9.792;2023-09-19T09:39:08;27.52;;;20.35;;
51296;SDS011;37380;45.186;9.792;2023-09-19T09:41:48;24.70;;;19.73;;
51296;SDS011;37380;45.186;9.792;2023-09-19T09:44:16;21.00;;;17.67;;
51296;SDS011;37380;45.186;9.792;2023-09-19T09:46:47;24.30;;;17.23;;
51296;SDS011;37380;45.186;9.792;2023-09-19T09:49:25;21.42;;;16.92;;
51296;SDS011;37380;45.186;9.792;2023-09-19T09:52:04;25.17;;;17.90;;
51296;SDS011;37380;45.186;9.792;2023-09-19T09:54:37;18.15;;;14.00;;
51296;SDS011;37380;45.186;9.792;2023-09-19T09:57:06;20.23;;;15.27;;
51296;SDS011;37380;45.186;9.792;2023-09-19T09:59:45;18.27;;;15.02;;
51296;SDS011;37380;45.186;9.792;2023-09-19T10:05:30;16.60;;;12.30;;
51296;SDS011;37380;45.186;9.792;2023-09-19T10:08:34;17.13;;;13.40;;
51296;SDS011;37380;45.186;9.792;2023-09-19T10:11:29;21.27;;;13.70;;
51296;SDS011;37380;45.186;9.792;2023-09-19T10:14:00;17.50;;;12.45;;
51296;SDS011;37380;45.186;9.792;2023-09-19T10:16:30;16.33;;;11.63;;
51296;SDS011;37380;45.186;9.792;2023-09-19T10:19:01;14.18;;;11.85;;
51296;SDS011;37380;45.186;9.792;2023-09-19T10:21:33;12.25;;;11.00;;
51296;SDS011;37380;45.186;9.792;2023-09-19T10:24:03;14.65;;;11.63;;
51296;SDS011;37380;45.186;9.792;2023-09-19T10:26:35;15.65;;;11.23;;
51296;SDS011;37380;45.186;9.792;2023-09-19T10:29:02;17.65;;;12.10;;
51296;SDS011;37380;45.186;9.792;2023-09-19T10:31:37;14.43;;;9.18;;
51296;SDS011;37380;45.186;9.792;2023-09-19T10:34:14;15.35;;;10.10;;
51296;SDS011;37380;45.186;9.792;2023-09-19T10:37:18;13.18;;;9.82;;
51296;SDS011;37380;45.186;9.792;2023-09-19T10:39:58;15.82;;;9.30;;
51296;SDS011;37380;45.186;9.792;2023-09-19T10:42:29;22.00;;;8.57;;
51296;SDS011;37380;45.186;9.792;2023-09-19T10:44:59;17.05;;;10.70;;
51296;SDS011;37380;45.186;9.792;2023-09-19T10:47:30;17.98;;;10.18;;
51296;SDS011;37380;45.186;9.792;2023-09-19T10:50:05;17.45;;;8.60;;
51296;SDS011;37380;45.186;9.792;2023-09-19T10:53:07;10.93;;;9.40;;
51296;SDS011;37380;45.186;9.792;2023-09-19T10:55:53;30.02;;;8.25;;
51296;SDS011;37380;45.186;9.792;2023-09-19T10:59:06;14.23;;;8.65;;
51296;SDS011;37380;45.186;9.792;2023-09-19T11:01:55;16.42;;;7.47;;
51296;SDS011;37380;45.186;9.792;2023-09-19T11:04:56;16.45;;;8.70;;
51296;SDS011;37380;45.186;9.792;2023-09-19T11:08:11;19.85;;;8.98;;
51296;SDS011;37380;45.186;9.792;2023-09-19T11:10:49;7.50;;;6.05;;
51296;SDS011;37380;45.186;9.792;2023-09-19T11:26:41;15.98;;;7.20;;
51296;SDS011;37380;45.186;9.792;2023-09-19T11:29:24;21.80;;;8.18;;
51296;SDS011;37380;45.186;9.792;2023-09-19T11:32:00;8.40;;;6.05;;
51296;SDS011;37380;45.186;9.792;2023-09-19T11:34:42;13.05;;;6.25;;
51296;SDS011;37380;45.186;9.792;2023-09-19T11:40:07;12.13;;;6.03;;
51296;SDS011;37380;45.186;9.792;2023-09-19T11:42:47;11.10;;;6.10;;
51296;SDS011;37380;45.186;9.792;2023-09-19T11:48:18;10.00;;;5.53;;
51296;SDS011;37380;45.186;9.792;2023-09-19T11:51:13;12.05;;;5.85;;
51296;SDS011;37380;45.186;9.792;2023-09-19T11:53:54;11.00;;;5.50;;
51296;SDS011;37380;45.186;9.792;2023-09-19T11:56:30;12.63;;;5.68;;
51296;SDS011;37380;45.186;9.792;2023-09-19T11:59:25;22.90;;;6.32;;
51296;SDS011;37380;45.186;9.792;2023-09-19T12:02:06;11.07;;;5.40;;
51296;SDS011;37380;45.186;9.792;2023-09-19T12:05:08;8.50;;;4.90;;
51296;SDS011;37380;45.186;9.792;2023-09-19T12:08:04;7.68;;;5.30;;
51296;SDS011;37380;45.186;9.792;2023-09-19T12:10:47;9.98;;;3.97;;
51296;SDS011;37380;45.186;9.792;2023-09-19T12:13:43;15.82;;;5.70;;
51296;SDS011;37380;45.186;9.792;2023-09-19T12:16:16;13.77;;;5.23;;
51296;SDS011;37380;45.186;9.792;2023-09-19T12:18:50;5.13;;;4.13;;
51296;SDS011;37380;45.186;9.792;2023-09-19T12:21:21;14.02;;;6.68;;
51296;SDS011;37380;45.186;9.792;2023-09-19T12:24:24;8.68;;;4.97;;
51296;SDS011;37380;45.186;9.792;2023-09-19T12:26:47;11.48;;;5.97;;
51296;SDS011;37380;45.186;9.792;2023-09-19T12:29:15;9.68;;;4.15;;
51296;SDS011;37380;45.186;9.792;2023-09-19T12:31:50;9.43;;;5.70;;
51296;SDS011;37380;45.186;9.792;2023-09-19T12:34:25;10.38;;;5.63;;
51296;SDS011;37380;45.186;9.792;2023-09-19T12:39:42;11.50;;;5.28;;
51296;SDS011;37380;45.186;9.792;2023-09-19T12:42:16;13.85;;;4.05;;
51296;SDS011;37380;45.186;9.792;2023-09-19T12:44:45;11.32;;;4.68;;
51296;SDS011;37380;45.186;9.792;2023-09-19T12:47:20;20.40;;;5.13;;
51296;SDS011;37380;45.186;9.792;2023-09-19T12:50:21;9.32;;;3.78;;
51296;SDS011;37380;45.186;9.792;2023-09-19T12:53:26;16.80;;;5.50;;
51296;SDS011;37380;45.186;9.792;2023-09-19T12:56:28;16.77;;;5.25;;
51296;SDS011;37380;45.186;9.792;2023-09-19T12:59:42;14.37;;;5.77;;
51296;SDS011;37380;45.186;9.792;2023-09-19T13:02:20;9.55;;;4.75;;
51296;SDS011;37380;45.186;9.792;2023-09-19T13:05:17;19.85;;;5.60;;
51296;SDS011;37380;45.186;9.792;2023-09-19T13:08:21;21.52;;;4.72;;
51296;SDS011;37380;45.186;9.792;2023-09-19T13:11:15;17.98;;;4.72;;
51296;SDS011;37380;45.186;9.792;2023-09-19T13:14:23;12.88;;;4.93;;
51296;SDS011;37380;45.186;9.792;2023-09-19T13:17:03;12.27;;;4.50;;
51296;SDS011;37380;45.186;9.792;2023-09-19T13:19:35;15.80;;;5.05;;
51296;SDS011;37380;45.186;9.792;2023-09-19T13:22:02;13.35;;;4.95;;
51296;SDS011;37380;45.186;9.792;2023-09-19T13:24:30;14.05;;;4.97;;
51296;SDS011;37380;45.186;9.792;2023-09-19T13:27:03;7.78;;;4.78;;
51296;SDS011;37380;45.186;9.792;2023-09-19T13:30:04;10.68;;;4.63;;
51296;SDS011;37380;45.186;9.792;2023-09-19T13:33:09;17.95;;;4.78;;
51296;SDS011;37380;45.186;9.792;2023-09-19T13:35:38;12.07;;;4.82;;
51296;SDS011;37380;45.186;9.792;2023-09-19T13:38:08;7.78;;;3.78;;
51296;SDS011;37380;45.186;9.792;2023-09-19T13:40:39;16.17;;;5.00;;
51296;SDS011;37380;45.186;9.792;2023-09-19T13:43:10;8.18;;;3.88;;
51296;SDS011;37380;45.186;9.792;2023-09-19T13:45:38;15.55;;;4.55;;
51296;SDS011;37380;45.186;9.792;2023-09-19T13:48:05;12.82;;;4.95;;
51296;SDS011;37380;45.186;9.792;2023-09-19T13:50:32;10.95;;;4.20;;
51296;SDS011;37380;45.186;9.792;2023-09-19T13:53:00;13.32;;;3.88;;
51296;SDS011;37380;45.186;9.792;2023-09-19T13:55:35;16.50;;;5.25;;
51296;SDS011;37380;45.186;9.792;2023-09-19T13:58:36;11.23;;;4.45;;
51296;SDS011;37380;45.186;9.792;2023-09-19T14:01:37;8.55;;;4.07;;
51296;SDS011;37380;45.186;9.792;2023-09-19T14:04:40;19.00;;;3.45;;
51296;SDS011;37380;45.186;9.792;2023-09-19T14:07:27;9.20;;;4.53;;
51296;SDS011;37380;45.186;9.792;2023-09-19T14:09:54;14.40;;;4.43;;
51296;SDS011;37380;45.186;9.792;2023-09-19T14:12:21;10.93;;;4.03;;
51296;SDS011;37380;45.186;9.792;2023-09-19T14:14:48;15.38;;;4.18;;
51296;SDS011;37380;45.186;9.792;2023-09-19T14:17:17;8.35;;;3.72;;
51296;SDS011;37380;45.186;9.792;2023-09-19T14:19:45;9.48;;;3.53;;
51296;SDS011;37380;45.186;9.792;2023-09-19T14:22:12;8.48;;;4.10;;
51296;SDS011;37380;45.186;9.792;2023-09-19T14:24:40;17.95;;;4.70;;
51296;SDS011;37380;45.186;9.792;2023-09-19T14:27:08;15.07;;;4.03;;
51296;SDS011;37380;45.186;9.792;2023-09-19T14:29:35;12.13;;;4.55;;
51296;SDS011;37380;45.186;9.792;2023-09-19T14:32:03;12.77;;;4.63;;
51296;SDS011;37380;45.186;9.792;2023-09-19T14:34:30;16.67;;;5.05;;
51296;SDS011;37380;45.186;9.792;2023-09-19T14:37:05;7.82;;;4.60;;
51296;SDS011;37380;45.186;9.792;2023-09-19T14:40:06;8.25;;;5.28;;
51296;SDS011;37380;45.186;9.792;2023-09-19T14:43:09;11.80;;;4.68;;
51296;SDS011;37380;45.186;9.792;2023-09-19T14:46:04;6.07;;;3.70;;
51296;SDS011;37380;45.186;9.792;2023-09-19T14:48:37;12.02;;;4.55;;
51296;SDS011;37380;45.186;9.792;2023-09-19T14:51:05;9.23;;;4.70;;
51296;SDS011;37380;45.186;9.792;2023-09-19T14:53:35;15.75;;;4.20;;
51296;SDS011;37380;45.186;9.792;2023-09-19T14:56:07;12.32;;;5.15;;
51296;SDS011;37380;45.186;9.792;2023-09-19T14:58:35;9.45;;;4.13;;
51296;SDS011;37380;45.186;9.792;2023-09-19T15:01:06;14.48;;;4.43;;
51296;SDS011;37380;45.186;9.792;2023-09-19T15:03:46;14.52;;;4.68;;
51296;SDS011;37380;45.186;9.792;2023-09-19T15:06:48;9.38;;;4.72;;
51296;SDS011;37380;45.186;9.792;2023-09-19T15:09:49;16.75;;;4.13;;
51296;SDS011;37380;45.186;9.792;2023-09-19T15:12:43;12.25;;;4.45;;
51296;SDS011;37380;45.186;9.792;2023-09-19T15:15:10;23.70;;;5.15;;
51296;SDS011;37380;45.186;9.792;2023-09-19T15:17:37;12.68;;;4.82;;
51296;SDS011;37380;45.186;9.792;2023-09-19T15:20:04;17.23;;;5.22;;
51296;SDS011;37380;45.186;9.792;2023-09-19T15:22:39;13.95;;;4.20;;
51296;SDS011;37380;45.186;9.792;2023-09-19T15:25:34;17.42;;;4.28;;
51296;SDS011;37380;45.186;9.792;2023-09-19T15:28:08;14.70;;;4.30;;
51296;SDS011;37380;45.186;9.792;2023-09-19T15:31:09;10.63;;;3.75;;
51296;SDS011;37380;45.186;9.792;2023-09-19T15:33:37;15.88;;;3.80;;
51296;SDS011;37380;45.186;9.792;2023-09-19T15:38:32;8.55;;;4.03;;
51296;SDS011;37380;45.186;9.792;2023-09-19T15:41:29;10.63;;;3.28;;
51296;SDS011;37380;45.186;9.792;2023-09-19T15:44:13;11.35;;;3.20;;
51296;SDS011;37380;45.186;9.792;2023-09-19T15:46:42;7.75;;;3.88;;
51296;SDS011;37380;45.186;9.792;2023-09-19T15:49:10;18.00;;;4.20;;
51296;SDS011;37380;45.186;9.792;2023-09-19T15:51:38;18.30;;;4.05;;
51296;SDS011;37380;45.186;9.792;2023-09-19T15:54:08;7.35;;;3.35;;
51296;SDS011;37380;45.186;9.792;2023-09-19T15:56:42;7.78;;;2.85;;